Pennsylvania — WAPZ — position and weather

sailwx.info

Track history (hours):
 
Tides and Currents Weather Stations Pressure Air Temp Water Temp Dewpoint Dewpoint Depression Visibility Wind Speed Wind Dir Waves Ship Positions

Pennsylvania

Owner: Crowley Petroleum Services, Jacksonville, FL. More information available from US FCC via Universal Licensing System and Coast Guard Vessel Documentation Center.

Last reported at 2016-Feb-06 04:21 UTC. Time now 2016-Feb-08 14:26 UTC.
Position N 29°46' W 093°54'.

Length 183 m; draft 11.2 m.

Type: Tanker. MMSI: 338617000.

Date/timePositionNaut miles runAvg speedWind from/ knotsBaromVisibWave heightAir tempDewpointWater temp
2016-Feb-06 04:21N 29°46' W 093°54'6 6.8
2016-Feb-06 03:27N 29°51' W 093°57'8 5.9
2016-Feb-06 02:09N 29°57' W 093°52'3 5.5
2016-Feb-06 01:33N 29°59' W 093°55'4 0.4
2016-Feb-05 14:28N 30°00' W 093°59'0 0.0
2016-Feb-04 07:04N 30°00' W 093°59'1 1.5
2016-Feb-04 06:33N 30°01' W 093°58'6 6.0
2016-Feb-04 05:33N 29°59' W 093°52'6 5.7
2016-Feb-04 04:33N 29°54' W 093°55'6 6.3
2016-Feb-04 03:33N 29°48' W 093°57'9 9.2
2016-Feb-04 02:33N 29°41' W 093°50'6 5.0
2016-Feb-04 01:17N 29°36' W 093°45'0 0.0
2016-Feb-03 14:17N 29°36' W 093°45'0 0.0
2016-Feb-03 10:20N 29°36' W 093°45'0 0.0
2016-Feb-03 09:29N 29°36' W 093°45'0 0.0
2016-Feb-03 08:32N 29°36' W 093°45'0 0.0
2016-Feb-03 07:26N 29°36' W 093°45'0 0.0
2016-Feb-03 06:32N 29°36' W 093°45'0 0.0
2016-Feb-03 05:32N 29°36' W 093°45'0 0.0
2016-Feb-03 04:32N 29°36' W 093°45'0 0.0
2016-Feb-03 03:26N 29°36' W 093°45'0 0.0
2016-Feb-03 02:32N 29°36' W 093°45'0 0.0
2016-Feb-03 01:32N 29°36' W 093°45'0 0.0
2016-Feb-03 00:31N 29°36' W 093°45'0 0.1
2016-Feb-02 23:33N 29°36' W 093°45'9 9.4
2016-Feb-02 22:33N 29°28' W 093°40'  
Track history (hours):
 
Tides and Currents Weather Stations Pressure Air Temp Water Temp Dewpoint Dewpoint Depression Visibility Wind Speed Wind Dir Waves Ship Positions

Pennsylvania

Owner: Crowley Petroleum Services, Jacksonville, FL. More information available from US FCC via Universal Licensing System and Coast Guard Vessel Documentation Center.

Last reported at 2016-Feb-06 04:21 UTC. Time now 2016-Feb-08 14:26 UTC.
Position N 29°46' W 093°54'.

Length 183 m; draft 11.2 m.

Type: Tanker. MMSI: 338617000.

Date/timePositionNaut miles runAvg speedWind from/ knotsBaromVisibWave heightAir tempDewpointWater temp
2016-Feb-06 04:21N 29°46' W 093°54'6 6.8
2016-Feb-06 03:27N 29°51' W 093°57'8 5.9
2016-Feb-06 02:09N 29°57' W 093°52'3 5.5
2016-Feb-06 01:33N 29°59' W 093°55'4 0.4
2016-Feb-05 14:28N 30°00' W 093°59'0 0.0
2016-Feb-04 07:04N 30°00' W 093°59'1 1.5
2016-Feb-04 06:33N 30°01' W 093°58'6 6.0
2016-Feb-04 05:33N 29°59' W 093°52'6 5.7
2016-Feb-04 04:33N 29°54' W 093°55'6 6.3
2016-Feb-04 03:33N 29°48' W 093°57'9 9.2
2016-Feb-04 02:33N 29°41' W 093°50'6 5.0
2016-Feb-04 01:17N 29°36' W 093°45'0 0.0
2016-Feb-03 14:17N 29°36' W 093°45'0 0.0
2016-Feb-03 10:20N 29°36' W 093°45'0 0.0
2016-Feb-03 09:29N 29°36' W 093°45'0 0.0
2016-Feb-03 08:32N 29°36' W 093°45'0 0.0
2016-Feb-03 07:26N 29°36' W 093°45'0 0.0
2016-Feb-03 06:32N 29°36' W 093°45'0 0.0
2016-Feb-03 05:32N 29°36' W 093°45'0 0.0
2016-Feb-03 04:32N 29°36' W 093°45'0 0.0
2016-Feb-03 03:26N 29°36' W 093°45'0 0.0
2016-Feb-03 02:32N 29°36' W 093°45'0 0.0
2016-Feb-03 01:32N 29°36' W 093°45'0 0.0
2016-Feb-03 00:31N 29°36' W 093°45'0 0.1
2016-Feb-02 23:33N 29°36' W 093°45'9 9.4
2016-Feb-02 22:33N 29°28' W 093°40'  

Dump ship's entire track history